Addieville, Illinois
Current Conditions -  °F | °C
As of 4:55 PM on Wednesday 22 Oct 2014 (Local Time) from KSAR Reporting Station
Haze Haze  
Wind Chill: 62°   Ceiling: 500
Heat Index: 62°   Visibility: 0.5mi
Dew Point: 41°   Wind: 3mph
Humidity: 47%   Direction: 60°ENE
Pressure: 30.24"   Gusts: NA
Location:  38.39°N, 89.49°W
Report Text: KSAR 222155Z AUTO 06003KT 1/2SM HZ VV005 17/05 A3024 RMK AO2 T01650050
Loading
Personal Weather Stations






























Interactive Weather Map
Tropical Storm Tracking
New forecast layout! Learn more

10-Day Weather Forecast

Advertisements
Track Severe Weather on mobile